AFR15VP LFPG-FMMI
Flight info
| Callsign | AFR15VP |
|---|---|
| Flight time | N/A |
| Altitude | 35000 |
| Route | OKASI DCT OKEKO DCT MOU DCT MADIV DCT MOKIP DCT TUFTA DCT KOGAS DCT MEDAM DCT NITAM DCT MOGBO DCT ALAXI DCT RUTOM/N0478F370 DCT SALUN N705 BOPIX N710 TAKRI P751 LXR M999 MUVOL/N0484F390 M999 JDW G650 RASKA/N0488F380 G650 ULONI/N0484F390 UV790 SB UR775 MITCH/N0481F410 UR775 MG UA401 TN TN1V |
| Aircraft | B772/H-SDE2E3FGHIJ5LORVWXY/LB1D1 |
Departure
| Time | N/A |
|---|---|
| Airport | Charles de Gaulle International Airport (LFPG) |
Arrival
| Time | 2026-04-23 22:31 |
|---|---|
| Airport | Ivato International Airport (FMMI) |
| Time | Latitude | Longitude | Altitude | Speed | Heading |
|---|---|---|---|---|---|
| 2026-04-23 16:51 | 23.11463 | 37.00386 | 36786 ft | 526 kts | 134° |
| 2026-04-23 16:51 | 23.09358 | 37.03631 | 36796 ft | 526 kts | 134° |
| 2026-04-23 16:51 | 23.05134 | 37.10137 | 36792 ft | 527 kts | 134° |
| 2026-04-23 16:52 | 23.00903 | 37.16639 | 36789 ft | 527 kts | 134° |
| 2026-04-23 16:52 | 22.96651 | 37.23118 | 36802 ft | 527 kts | 134° |
| 2026-04-23 16:53 | 22.92385 | 37.29600 | 36802 ft | 528 kts | 134° |
| 2026-04-23 16:53 | 22.88125 | 37.36075 | 36806 ft | 529 kts | 134° |
| 2026-04-23 16:54 | 22.83872 | 37.42536 | 36800 ft | 530 kts | 134° |
| 2026-04-23 16:54 | 22.79578 | 37.49052 | 36794 ft | 531 kts | 134° |
| 2026-04-23 16:55 | 22.75279 | 37.55568 | 36797 ft | 532 kts | 134° |
| 2026-04-23 16:55 | 22.70965 | 37.62098 | 36800 ft | 533 kts | 134° |
| 2026-04-23 16:56 | 22.66655 | 37.68653 | 36801 ft | 535 kts | 134° |
| 2026-04-23 16:56 | 22.62349 | 37.75234 | 36791 ft | 536 kts | 134° |
| 2026-04-23 16:57 | 22.58029 | 37.81824 | 36802 ft | 536 kts | 134° |
| 2026-04-23 16:57 | 22.53699 | 37.88417 | 36801 ft | 537 kts | 134° |
| 2026-04-23 16:58 | 22.49390 | 37.94965 | 36799 ft | 537 kts | 134° |
| 2026-04-23 16:58 | 22.45053 | 38.01551 | 36792 ft | 537 kts | 134° |
| 2026-04-23 16:59 | 22.40714 | 38.08129 | 36790 ft | 537 kts | 134° |
| 2026-04-23 16:59 | 22.36372 | 38.14705 | 36792 ft | 537 kts | 134° |
| 2026-04-23 17:00 | 22.32016 | 38.21295 | 37006 ft | 540 kts | 134° |
| 2026-04-23 17:00 | 22.29831 | 38.24598 | 37211 ft | 541 kts | 135° |
| 2026-04-23 17:00 | 22.27671 | 38.27859 | 37406 ft | 541 kts | 135° |
| 2026-04-23 17:01 | 22.25477 | 38.31162 | 37613 ft | 541 kts | 135° |
| 2026-04-23 17:01 | 22.23281 | 38.34463 | 37807 ft | 542 kts | 135° |
| 2026-04-23 17:01 | 22.21078 | 38.37774 | 37999 ft | 542 kts | 135° |
| 2026-04-23 17:01 | 22.18880 | 38.41077 | 38154 ft | 543 kts | 135° |
| 2026-04-23 17:02 | 22.17388 | 38.43317 | 38289 ft | 544 kts | 136° |
| 2026-04-23 17:02 | 22.14461 | 38.47715 | 38490 ft | 544 kts | 136° |
| 2026-04-23 17:02 | 22.12261 | 38.51022 | 38690 ft | 543 kts | 136° |
| 2026-04-23 17:02 | 22.10052 | 38.54337 | 38718 ft | 544 kts | 136° |
| 2026-04-23 17:03 | 22.05633 | 38.60961 | 38769 ft | 544 kts | 136° |
| 2026-04-23 17:03 | 22.01228 | 38.67560 | 38757 ft | 541 kts | 136° |
| 2026-04-23 17:04 | 21.96841 | 38.74120 | 38770 ft | 539 kts | 136° |
| 2026-04-23 17:04 | 21.92490 | 38.80615 | 38767 ft | 538 kts | 136° |
| 2026-04-23 17:05 | 21.88102 | 38.87157 | 38772 ft | 539 kts | 136° |
| 2026-04-23 17:05 | 21.83708 | 38.93701 | 38759 ft | 540 kts | 136° |
| 2026-04-23 17:06 | 21.79298 | 39.00266 | 38774 ft | 542 kts | 136° |
| 2026-04-23 17:06 | 21.74832 | 39.06804 | 38769 ft | 534 kts | 142° |
| 2026-04-23 17:07 | 21.72154 | 39.09383 | 38747 ft | 503 kts | 160° |
| 2026-04-23 17:07 | 21.69110 | 39.11010 | 38785 ft | 479 kts | 173° |
| 2026-04-23 17:07 | 21.65949 | 39.11955 | 38778 ft | 465 kts | 183° |
| 2026-04-23 17:07 | 21.62800 | 39.12248 | 38762 ft | 443 kts | 194° |
| 2026-04-23 17:08 | 21.57677 | 39.12016 | 38777 ft | 447 kts | 194° |
| 2026-04-23 17:08 | 21.51414 | 39.11799 | 38782 ft | 453 kts | 193° |
| 2026-04-23 17:09 | 21.44047 | 39.11603 | 38765 ft | 457 kts | 193° |
| 2026-04-23 17:09 | 21.38705 | 39.11474 | 38779 ft | 459 kts | 193° |
| 2026-04-23 17:10 | 21.32318 | 39.11320 | 38784 ft | 459 kts | 193° |
| 2026-04-23 17:10 | 21.25939 | 39.11166 | 38780 ft | 457 kts | 193° |
| 2026-04-23 17:11 | 21.19594 | 39.11011 | 38767 ft | 454 kts | 193° |
| 2026-04-23 17:11 | 21.13292 | 39.10854 | 38789 ft | 452 kts | 193° |
| 2026-04-23 17:12 | 21.07015 | 39.10697 | 38798 ft | 451 kts | 193° |
| 2026-04-23 17:12 | 21.00780 | 39.10541 | 38800 ft | 450 kts | 193° |
| 2026-04-23 17:13 | 20.94513 | 39.10384 | 38784 ft | 451 kts | 193° |
| 2026-04-23 17:13 | 20.88230 | 39.10228 | 38798 ft | 452 kts | 193° |
| 2026-04-23 17:14 | 20.81931 | 39.10072 | 38806 ft | 454 kts | 193° |
| 2026-04-23 17:14 | 20.75613 | 39.09916 | 38804 ft | 455 kts | 193° |
| 2026-04-23 17:15 | 20.69265 | 39.09759 | 38806 ft | 456 kts | 193° |
| 2026-04-23 17:15 | 20.62907 | 39.09597 | 38800 ft | 458 kts | 193° |
| 2026-04-23 17:16 | 20.56524 | 39.09433 | 38806 ft | 459 kts | 193° |
| 2026-04-23 17:16 | 20.50125 | 39.09269 | 38803 ft | 460 kts | 193° |
| 2026-04-23 17:17 | 20.43767 | 39.09108 | 38803 ft | 460 kts | 193° |
| 2026-04-23 17:17 | 20.37358 | 39.08946 | 38799 ft | 461 kts | 193° |
| 2026-04-23 17:18 | 20.27740 | 39.08702 | 38805 ft | 461 kts | 193° |
| 2026-04-23 17:19 | 20.21321 | 39.08539 | 38801 ft | 461 kts | 193° |
| 2026-04-23 17:19 | 20.14914 | 39.08377 | 38788 ft | 461 kts | 192° |
| 2026-04-23 17:20 | 20.08492 | 39.08214 | 38804 ft | 462 kts | 192° |
| 2026-04-23 17:21 | 19.95617 | 39.07887 | 38806 ft | 463 kts | 192° |
| 2026-04-23 17:21 | 19.85972 | 39.07644 | 38796 ft | 464 kts | 192° |
| 2026-04-23 17:22 | 19.76267 | 39.07399 | 38807 ft | 465 kts | 192° |
| 2026-04-23 17:23 | 19.66542 | 39.07154 | 38807 ft | 467 kts | 192° |
| 2026-04-23 17:24 | 19.56794 | 39.06909 | 38803 ft | 467 kts | 192° |
| 2026-04-23 17:24 | 19.47091 | 39.06666 | 38805 ft | 467 kts | 192° |
| 2026-04-23 17:25 | 19.37321 | 39.06421 | 38787 ft | 466 kts | 192° |
| 2026-04-23 17:26 | 19.24383 | 39.06095 | 38806 ft | 467 kts | 192° |
| 2026-04-23 17:27 | 19.14619 | 39.05850 | 38803 ft | 468 kts | 192° |
| 2026-04-23 17:27 | 19.08123 | 39.05614 | 38802 ft | 466 kts | 193° |
| 2026-04-23 17:28 | 19.01640 | 39.05230 | 38810 ft | 466 kts | 193° |
| 2026-04-23 17:28 | 18.95153 | 39.04839 | 38811 ft | 467 kts | 193° |
| 2026-04-23 17:29 | 18.88659 | 39.04468 | 38811 ft | 468 kts | 193° |
| 2026-04-23 17:30 | 18.78884 | 39.03927 | 38802 ft | 469 kts | 193° |
| 2026-04-23 17:30 | 18.69083 | 39.03385 | 38810 ft | 471 kts | 193° |
| 2026-04-23 17:31 | 18.62578 | 39.03025 | 38808 ft | 471 kts | 193° |
| 2026-04-23 17:31 | 18.56026 | 39.02662 | 38798 ft | 472 kts | 192° |
| 2026-04-23 17:32 | 18.49462 | 39.02301 | 38808 ft | 472 kts | 192° |
| 2026-04-23 17:32 | 18.42898 | 39.01938 | 38808 ft | 472 kts | 192° |
| 2026-04-23 17:33 | 18.36332 | 39.01576 | 38809 ft | 472 kts | 192° |
| 2026-04-23 17:33 | 18.29762 | 39.01214 | 38798 ft | 472 kts | 192° |
| 2026-04-23 17:34 | 18.23207 | 39.00853 | 38807 ft | 472 kts | 192° |
| 2026-04-23 17:35 | 18.13412 | 39.00342 | 38806 ft | 472 kts | 191° |
| 2026-04-23 17:35 | 18.03536 | 39.00001 | 38802 ft | 473 kts | 190° |
| 2026-04-23 17:36 | 17.96955 | 38.99775 | 38819 ft | 473 kts | 191° |
| 2026-04-23 17:36 | 17.90371 | 38.99537 | 38805 ft | 473 kts | 191° |
| 2026-04-23 17:37 | 17.83785 | 38.99295 | 38809 ft | 473 kts | 191° |
| 2026-04-23 17:38 | 17.73916 | 38.98935 | 38814 ft | 473 kts | 190° |
| 2026-04-23 17:38 | 17.67374 | 38.98697 | 38812 ft | 474 kts | 190° |
| 2026-04-23 17:39 | 17.60777 | 38.98457 | 38809 ft | 474 kts | 190° |
| 2026-04-23 17:39 | 17.54189 | 38.98217 | 38797 ft | 474 kts | 190° |
| 2026-04-23 17:40 | 17.47588 | 38.97993 | 38802 ft | 475 kts | 187° |
| 2026-04-23 17:40 | 17.44259 | 38.98400 | 38796 ft | 491 kts | 173° |
| 2026-04-23 17:40 | 17.41000 | 38.99612 | 38811 ft | 505 kts | 161° |
| 2026-04-23 17:40 | 17.37976 | 39.01566 | 38813 ft | 517 kts | 148° |
| 2026-04-23 17:41 | 17.35178 | 39.03979 | 38842 ft | 520 kts | 146° |
| 2026-04-23 17:41 | 17.26876 | 39.11390 | 38813 ft | 524 kts | 146° |
| 2026-04-23 17:42 | 17.18467 | 39.18717 | 38805 ft | 525 kts | 147° |
| 2026-04-23 17:43 | 17.12870 | 39.23529 | 38812 ft | 525 kts | 147° |
| 2026-04-23 17:43 | 17.07225 | 39.28375 | 38813 ft | 524 kts | 147° |
| 2026-04-23 17:44 | 17.01592 | 39.33214 | 38809 ft | 524 kts | 147° |
| 2026-04-23 17:44 | 16.93148 | 39.40465 | 38808 ft | 523 kts | 147° |
| 2026-04-23 17:45 | 16.84706 | 39.47705 | 38814 ft | 523 kts | 147° |
| 2026-04-23 17:46 | 16.76260 | 39.54940 | 38810 ft | 523 kts | 147° |
| 2026-04-23 17:46 | 16.70624 | 39.59762 | 38808 ft | 524 kts | 147° |
| 2026-04-23 17:47 | 16.64989 | 39.64581 | 38820 ft | 524 kts | 147° |
| 2026-04-23 17:48 | 16.56550 | 39.71789 | 38812 ft | 525 kts | 147° |
| 2026-04-23 17:48 | 16.50901 | 39.76610 | 38814 ft | 524 kts | 146° |
| 2026-04-23 17:49 | 16.45259 | 39.81422 | 38802 ft | 523 kts | 146° |
| 2026-04-23 17:49 | 16.39620 | 39.86227 | 38805 ft | 523 kts | 146° |
| 2026-04-23 17:50 | 16.33987 | 39.91023 | 38811 ft | 523 kts | 146° |
| 2026-04-23 17:50 | 16.25533 | 39.98214 | 38808 ft | 522 kts | 146° |
| 2026-04-23 17:51 | 16.19944 | 40.02963 | 38808 ft | 522 kts | 146° |
| 2026-04-23 17:52 | 16.11505 | 40.10127 | 38809 ft | 522 kts | 146° |
| 2026-04-23 17:52 | 16.03059 | 40.17289 | 38808 ft | 522 kts | 146° |
| 2026-04-23 17:53 | 15.94604 | 40.24451 | 38806 ft | 522 kts | 146° |
| 2026-04-23 17:54 | 15.88976 | 40.29214 | 38791 ft | 522 kts | 146° |
| 2026-04-23 17:54 | 15.80514 | 40.36368 | 38807 ft | 523 kts | 146° |
| 2026-04-23 17:55 | 15.72986 | 40.42726 | 38804 ft | 524 kts | 146° |
| 2026-04-23 17:56 | 15.67330 | 40.47500 | 38800 ft | 524 kts | 146° |
| 2026-04-23 17:56 | 15.58844 | 40.54654 | 38804 ft | 525 kts | 146° |
| 2026-04-23 17:57 | 15.53168 | 40.59435 | 38798 ft | 525 kts | 146° |
| 2026-04-23 17:58 | 15.44667 | 40.66589 | 38803 ft | 525 kts | 146° |
| 2026-04-23 17:58 | 15.39034 | 40.71326 | 38800 ft | 524 kts | 146° |
| 2026-04-23 17:59 | 15.33364 | 40.76090 | 38806 ft | 524 kts | 146° |
| 2026-04-23 17:59 | 15.27663 | 40.80877 | 38802 ft | 524 kts | 146° |
| 2026-04-23 18:00 | 15.22032 | 40.85601 | 38797 ft | 524 kts | 146° |
| 2026-04-23 18:00 | 15.16368 | 40.90351 | 38805 ft | 524 kts | 146° |
| 2026-04-23 18:01 | 15.10700 | 40.95100 | 38800 ft | 524 kts | 146° |
| 2026-04-23 18:01 | 15.05021 | 40.99856 | 38799 ft | 524 kts | 146° |
| 2026-04-23 18:02 | 14.99347 | 41.04600 | 38800 ft | 525 kts | 146° |
| 2026-04-23 18:02 | 14.93663 | 41.09342 | 38796 ft | 525 kts | 146° |
| 2026-04-23 18:03 | 14.87979 | 41.14082 | 38793 ft | 525 kts | 145° |
| 2026-04-23 18:03 | 14.82340 | 41.18783 | 38795 ft | 524 kts | 145° |
| 2026-04-23 18:04 | 14.76631 | 41.23540 | 38791 ft | 524 kts | 145° |
| 2026-04-23 18:04 | 14.70992 | 41.28235 | 38791 ft | 523 kts | 145° |
| 2026-04-23 18:05 | 14.65321 | 41.32953 | 38794 ft | 523 kts | 145° |
| 2026-04-23 18:05 | 14.59652 | 41.37666 | 38794 ft | 523 kts | 145° |
| 2026-04-23 18:06 | 14.53984 | 41.42376 | 38799 ft | 522 kts | 145° |
| 2026-04-23 18:06 | 14.48323 | 41.47077 | 38795 ft | 522 kts | 145° |
| 2026-04-23 18:07 | 14.42672 | 41.51766 | 38796 ft | 521 kts | 145° |
| 2026-04-23 18:07 | 14.37012 | 41.56459 | 38795 ft | 521 kts | 144° |
| 2026-04-23 18:08 | 14.32314 | 41.60353 | 38794 ft | 521 kts | 145° |
| 2026-04-23 18:08 | 14.25706 | 41.65825 | 38791 ft | 521 kts | 145° |
| 2026-04-23 18:09 | 14.20050 | 41.70506 | 38784 ft | 521 kts | 144° |
| 2026-04-23 18:09 | 14.14438 | 41.75147 | 38792 ft | 520 kts | 144° |
| 2026-04-23 18:10 | 14.08787 | 41.79818 | 38792 ft | 520 kts | 144° |
| 2026-04-23 18:10 | 14.03132 | 41.84488 | 38795 ft | 521 kts | 144° |
| 2026-04-23 18:11 | 13.97478 | 41.89156 | 38794 ft | 521 kts | 144° |
| 2026-04-23 18:11 | 13.91814 | 41.93828 | 38801 ft | 521 kts | 144° |
| 2026-04-23 18:12 | 13.86155 | 41.98493 | 38800 ft | 520 kts | 144° |
| 2026-04-23 18:12 | 13.80537 | 42.03122 | 38794 ft | 520 kts | 144° |
| 2026-04-23 18:13 | 13.74886 | 42.07775 | 38798 ft | 520 kts | 144° |
| 2026-04-23 18:13 | 13.69234 | 42.12427 | 38790 ft | 520 kts | 144° |
| 2026-04-23 18:14 | 13.63582 | 42.17071 | 38795 ft | 520 kts | 144° |
| 2026-04-23 18:14 | 13.57918 | 42.21685 | 38791 ft | 520 kts | 144° |
| 2026-04-23 18:15 | 13.52249 | 42.26294 | 38795 ft | 520 kts | 144° |
| 2026-04-23 18:15 | 13.46573 | 42.30912 | 38789 ft | 520 kts | 144° |
| 2026-04-23 18:16 | 13.40905 | 42.35524 | 38792 ft | 520 kts | 144° |
| 2026-04-23 18:16 | 13.35224 | 42.40145 | 38789 ft | 520 kts | 144° |
| 2026-04-23 18:17 | 13.26741 | 42.47038 | 38790 ft | 521 kts | 144° |
| 2026-04-23 18:17 | 13.21059 | 42.51651 | 38793 ft | 521 kts | 144° |
| 2026-04-23 18:18 | 13.15377 | 42.56263 | 38794 ft | 521 kts | 144° |
| 2026-04-23 18:18 | 13.09644 | 42.60793 | 38792 ft | 519 kts | 149° |
| 2026-04-23 18:19 | 13.03336 | 42.64311 | 38791 ft | 514 kts | 160° |
| 2026-04-23 18:19 | 12.96623 | 42.66716 | 38811 ft | 510 kts | 166° |
| 2026-04-23 18:20 | 12.89845 | 42.68866 | 38797 ft | 510 kts | 166° |
| 2026-04-23 18:20 | 12.83055 | 42.71063 | 38808 ft | 511 kts | 166° |
| 2026-04-23 18:21 | 12.76281 | 42.73289 | 38803 ft | 512 kts | 166° |
| 2026-04-23 18:21 | 12.69495 | 42.75522 | 38805 ft | 512 kts | 166° |
| 2026-04-23 18:22 | 12.62745 | 42.77737 | 38821 ft | 513 kts | 166° |
| 2026-04-23 18:22 | 12.55941 | 42.79925 | 38812 ft | 512 kts | 167° |
| 2026-04-23 18:23 | 12.45657 | 42.82907 | 38829 ft | 512 kts | 168° |
| 2026-04-23 18:24 | 12.35362 | 42.85886 | 38821 ft | 512 kts | 167° |
| 2026-04-23 18:25 | 12.25093 | 42.88896 | 38836 ft | 511 kts | 167° |
| 2026-04-23 18:25 | 12.18253 | 42.90901 | 38847 ft | 511 kts | 167° |
| 2026-04-23 18:26 | 12.11460 | 42.92889 | 38863 ft | 510 kts | 167° |
| 2026-04-23 18:26 | 12.04644 | 42.94882 | 38868 ft | 509 kts | 167° |
| 2026-04-23 18:27 | 11.97841 | 42.96870 | 38864 ft | 508 kts | 167° |
| 2026-04-23 18:27 | 11.91048 | 42.98855 | 38854 ft | 508 kts | 167° |
| 2026-04-23 18:28 | 11.84251 | 43.00840 | 38854 ft | 507 kts | 167° |
| 2026-04-23 18:28 | 11.77471 | 43.02818 | 38838 ft | 506 kts | 167° |
| 2026-04-23 18:29 | 11.70698 | 43.04794 | 38858 ft | 506 kts | 167° |
| 2026-04-23 18:29 | 11.63966 | 43.06757 | 38852 ft | 506 kts | 167° |
| 2026-04-23 18:30 | 11.57177 | 43.08738 | 38850 ft | 507 kts | 166° |
| 2026-04-23 18:30 | 11.50592 | 43.11359 | 38854 ft | 511 kts | 156° |
| 2026-04-23 18:31 | 11.44199 | 43.14554 | 38849 ft | 511 kts | 156° |
| 2026-04-23 18:31 | 11.37764 | 43.17694 | 38856 ft | 512 kts | 156° |
| 2026-04-23 18:32 | 11.31399 | 43.20850 | 38846 ft | 512 kts | 155° |
| 2026-04-23 18:32 | 11.25041 | 43.24140 | 38850 ft | 513 kts | 155° |
| 2026-04-23 18:33 | 11.18682 | 43.27432 | 38852 ft | 513 kts | 155° |
| 2026-04-23 18:33 | 11.12303 | 43.30709 | 38853 ft | 513 kts | 155° |
| 2026-04-23 18:34 | 11.05924 | 43.33974 | 38859 ft | 513 kts | 155° |
| 2026-04-23 18:34 | 10.99538 | 43.37241 | 38854 ft | 513 kts | 155° |
| 2026-04-23 18:35 | 10.93203 | 43.40482 | 38848 ft | 513 kts | 155° |
| 2026-04-23 18:35 | 10.86831 | 43.43741 | 38846 ft | 513 kts | 155° |
| 2026-04-23 18:36 | 10.80453 | 43.47001 | 38848 ft | 513 kts | 155° |
| 2026-04-23 18:36 | 10.74074 | 43.50261 | 38841 ft | 513 kts | 155° |
| 2026-04-23 18:37 | 10.67687 | 43.53523 | 38852 ft | 513 kts | 155° |
| 2026-04-23 18:37 | 10.61303 | 43.56782 | 38857 ft | 513 kts | 155° |
| 2026-04-23 18:38 | 10.54916 | 43.60041 | 38855 ft | 513 kts | 155° |
| 2026-04-23 18:38 | 10.48530 | 43.63170 | 38866 ft | 513 kts | 156° |
| 2026-04-23 18:39 | 10.42050 | 43.66246 | 38864 ft | 513 kts | 156° |
| 2026-04-23 18:39 | 10.35586 | 43.69323 | 38874 ft | 513 kts | 156° |
| 2026-04-23 18:40 | 10.29112 | 43.72426 | 38869 ft | 513 kts | 156° |
| 2026-04-23 18:40 | 10.22655 | 43.75527 | 38887 ft | 513 kts | 156° |
| 2026-04-23 18:41 | 10.17289 | 43.78102 | 38886 ft | 513 kts | 156° |
| 2026-04-23 18:41 | 10.10821 | 43.81203 | 38896 ft | 514 kts | 156° |
| 2026-04-23 18:42 | 10.04363 | 43.84298 | 38902 ft | 513 kts | 156° |
| 2026-04-23 18:42 | 9.97903 | 43.87392 | 38915 ft | 513 kts | 156° |
| 2026-04-23 18:43 | 9.91448 | 43.90482 | 38926 ft | 513 kts | 156° |
| 2026-04-23 18:43 | 9.84991 | 43.93573 | 38927 ft | 513 kts | 156° |
| 2026-04-23 18:44 | 9.78524 | 43.96666 | 38938 ft | 513 kts | 156° |
| 2026-04-23 18:44 | 9.72064 | 43.99755 | 38939 ft | 513 kts | 156° |
| 2026-04-23 18:45 | 9.65638 | 44.02827 | 38938 ft | 514 kts | 156° |
| 2026-04-23 18:45 | 9.59175 | 44.05916 | 38935 ft | 514 kts | 156° |
| 2026-04-23 18:46 | 9.52643 | 44.08837 | 38926 ft | 513 kts | 162° |
| 2026-04-23 18:46 | 9.45762 | 44.10670 | 38936 ft | 510 kts | 171° |
| 2026-04-23 18:47 | 9.38775 | 44.12044 | 38929 ft | 511 kts | 171° |
| 2026-04-23 18:47 | 9.31788 | 44.13446 | 38936 ft | 513 kts | 171° |
| 2026-04-23 18:48 | 9.24791 | 44.14890 | 38930 ft | 513 kts | 170° |
| 2026-04-23 18:48 | 9.17794 | 44.16342 | 38933 ft | 513 kts | 170° |
| 2026-04-23 18:49 | 9.10802 | 44.17792 | 38924 ft | 512 kts | 170° |
| 2026-04-23 18:49 | 9.03818 | 44.19236 | 38931 ft | 511 kts | 170° |
| 2026-04-23 18:50 | 8.98018 | 44.20435 | 38924 ft | 510 kts | 170° |
| 2026-04-23 18:50 | 8.89903 | 44.22129 | 38927 ft | 509 kts | 169° |
| 2026-04-23 18:51 | 8.83013 | 44.23758 | 38920 ft | 508 kts | 167° |
| 2026-04-23 18:51 | 8.76148 | 44.25449 | 38915 ft | 507 kts | 167° |
| 2026-04-23 18:52 | 8.69284 | 44.27120 | 38924 ft | 506 kts | 168° |
| 2026-04-23 18:52 | 8.62473 | 44.28756 | 38921 ft | 507 kts | 168° |
| 2026-04-23 18:53 | 8.55609 | 44.30397 | 38926 ft | 507 kts | 168° |
| 2026-04-23 18:53 | 8.48740 | 44.32040 | 38920 ft | 507 kts | 168° |
| 2026-04-23 18:54 | 8.41856 | 44.33686 | 38918 ft | 508 kts | 168° |
| 2026-04-23 18:54 | 8.34973 | 44.35333 | 38918 ft | 509 kts | 168° |
| 2026-04-23 18:55 | 8.28078 | 44.36982 | 38922 ft | 509 kts | 168° |
| 2026-04-23 18:55 | 8.21174 | 44.38632 | 38908 ft | 510 kts | 168° |
| 2026-04-23 18:56 | 8.15430 | 44.40005 | 38912 ft | 510 kts | 168° |
| 2026-04-23 18:56 | 8.07392 | 44.41925 | 38912 ft | 510 kts | 168° |
| 2026-04-23 18:57 | 8.00484 | 44.43575 | 38912 ft | 510 kts | 168° |
| 2026-04-23 18:57 | 7.93574 | 44.45224 | 38913 ft | 510 kts | 168° |
| 2026-04-23 18:58 | 7.86657 | 44.46875 | 38907 ft | 510 kts | 168° |
| 2026-04-23 18:58 | 7.79760 | 44.48520 | 38912 ft | 510 kts | 168° |
| 2026-04-23 18:59 | 7.72851 | 44.50167 | 38908 ft | 510 kts | 168° |
| 2026-04-23 18:59 | 7.65952 | 44.51812 | 38910 ft | 510 kts | 168° |
| 2026-04-23 19:00 | 7.59051 | 44.53456 | 38915 ft | 509 kts | 168° |
| 2026-04-23 19:00 | 7.52190 | 44.55091 | 38913 ft | 509 kts | 168° |
| 2026-04-23 19:01 | 7.45295 | 44.56733 | 38916 ft | 509 kts | 168° |
| 2026-04-23 19:01 | 7.38399 | 44.58374 | 38912 ft | 509 kts | 168° |
| 2026-04-23 19:02 | 7.32679 | 44.59736 | 38913 ft | 508 kts | 168° |
| 2026-04-23 19:02 | 7.24628 | 44.61651 | 38908 ft | 508 kts | 168° |
| 2026-04-23 19:03 | 7.17791 | 44.63277 | 38905 ft | 508 kts | 168° |
| 2026-04-23 19:03 | 7.10874 | 44.64922 | 38909 ft | 508 kts | 168° |
| 2026-04-23 19:04 | 7.04040 | 44.66547 | 38900 ft | 507 kts | 168° |
| 2026-04-23 19:04 | 6.97160 | 44.68181 | 38901 ft | 507 kts | 168° |
| 2026-04-23 19:05 | 6.90288 | 44.69814 | 38896 ft | 507 kts | 168° |
| 2026-04-23 19:05 | 6.83409 | 44.71448 | 38892 ft | 508 kts | 168° |
| 2026-04-23 19:06 | 6.76526 | 44.73082 | 38884 ft | 508 kts | 168° |
| 2026-04-23 19:06 | 6.69653 | 44.74715 | 38884 ft | 508 kts | 168° |
| 2026-04-23 19:07 | 6.62783 | 44.76366 | 38884 ft | 508 kts | 168° |
| 2026-04-23 19:07 | 6.55945 | 44.78017 | 38886 ft | 508 kts | 168° |
| 2026-04-23 19:08 | 6.49063 | 44.79677 | 38888 ft | 508 kts | 168° |
| 2026-04-23 19:08 | 6.42188 | 44.81332 | 38887 ft | 508 kts | 168° |
| 2026-04-23 19:09 | 6.35311 | 44.82986 | 38891 ft | 508 kts | 168° |
| 2026-04-23 19:09 | 6.28428 | 44.84642 | 38884 ft | 508 kts | 168° |
| 2026-04-23 19:10 | 6.21547 | 44.86296 | 38886 ft | 508 kts | 168° |
| 2026-04-23 19:10 | 6.14667 | 44.87950 | 38887 ft | 508 kts | 168° |
| 2026-04-23 19:11 | 6.07783 | 44.89605 | 38885 ft | 508 kts | 168° |
| 2026-04-23 19:11 | 6.00910 | 44.91257 | 38887 ft | 508 kts | 168° |
| 2026-04-23 19:12 | 5.95190 | 44.92630 | 38886 ft | 508 kts | 168° |
| 2026-04-23 19:12 | 5.87134 | 44.94565 | 38888 ft | 508 kts | 168° |
| 2026-04-23 19:13 | 5.80254 | 44.96217 | 38893 ft | 508 kts | 168° |
| 2026-04-23 19:13 | 5.73433 | 44.97855 | 38897 ft | 508 kts | 168° |
| 2026-04-23 19:14 | 5.66559 | 44.99504 | 38899 ft | 508 kts | 168° |
| 2026-04-23 19:14 | 5.59684 | 45.01154 | 38901 ft | 507 kts | 168° |
| 2026-04-23 19:15 | 5.52808 | 45.02803 | 38906 ft | 507 kts | 168° |
| 2026-04-23 19:15 | 5.45936 | 45.04451 | 38905 ft | 507 kts | 168° |
| 2026-04-23 19:16 | 5.39074 | 45.06097 | 38898 ft | 507 kts | 168° |
| 2026-04-23 19:16 | 5.32208 | 45.07742 | 38907 ft | 506 kts | 168° |
| 2026-04-23 19:17 | 5.21934 | 45.10205 | 38902 ft | 506 kts | 168° |
| 2026-04-23 19:17 | 5.15088 | 45.11845 | 38899 ft | 505 kts | 168° |
| 2026-04-23 19:18 | 5.08273 | 45.13349 | 38890 ft | 504 kts | 173° |
| 2026-04-23 19:18 | 5.01297 | 45.13884 | 38906 ft | 502 kts | 179° |
| 2026-04-23 19:19 | 4.90811 | 45.14339 | 38902 ft | 503 kts | 179° |
| 2026-04-23 19:20 | 4.80308 | 45.14859 | 38896 ft | 504 kts | 178° |
| 2026-04-23 19:20 | 4.73284 | 45.15225 | 38898 ft | 505 kts | 178° |
| 2026-04-23 19:21 | 4.62776 | 45.15773 | 38899 ft | 507 kts | 178° |
| 2026-04-23 19:22 | 4.55712 | 45.16139 | 38889 ft | 507 kts | 178° |
| 2026-04-23 19:22 | 4.45132 | 45.16686 | 38895 ft | 508 kts | 178° |
| 2026-04-23 19:23 | 4.38073 | 45.17051 | 38893 ft | 508 kts | 178° |
| 2026-04-23 19:24 | 4.27531 | 45.17597 | 38897 ft | 507 kts | 178° |
| 2026-04-23 19:24 | 4.16956 | 45.18144 | 38894 ft | 506 kts | 178° |
| 2026-04-23 19:25 | 4.02883 | 45.18871 | 38894 ft | 505 kts | 178° |
| 2026-04-23 19:26 | 3.92362 | 45.19415 | 38899 ft | 504 kts | 178° |
| 2026-04-23 19:27 | 3.74893 | 45.20318 | 38898 ft | 503 kts | 179° |
| 2026-04-23 19:28 | 3.62133 | 45.20977 | 38893 ft | 501 kts | 179° |
| 2026-04-23 19:29 | 3.51702 | 45.21515 | 38891 ft | 499 kts | 178° |
| 2026-04-23 19:30 | 3.41303 | 45.22052 | 38892 ft | 499 kts | 178° |
| 2026-04-23 19:31 | 3.30908 | 45.22588 | 38892 ft | 498 kts | 178° |
| 2026-04-23 19:31 | 3.23984 | 45.22945 | 38892 ft | 498 kts | 178° |
| 2026-04-23 19:32 | 3.17054 | 45.23303 | 38891 ft | 498 kts | 178° |
| 2026-04-23 19:32 | 3.10128 | 45.23660 | 38892 ft | 499 kts | 178° |
| 2026-04-23 19:33 | 3.03192 | 45.24018 | 38887 ft | 499 kts | 178° |
| 2026-04-23 19:33 | 2.92780 | 45.24555 | 38889 ft | 500 kts | 178° |
| 2026-04-23 19:34 | 2.85884 | 45.24910 | 38886 ft | 500 kts | 178° |
| 2026-04-23 19:35 | 2.75459 | 45.25448 | 38892 ft | 500 kts | 178° |
| 2026-04-23 19:35 | 2.68503 | 45.25806 | 38892 ft | 500 kts | 178° |
| 2026-04-23 19:36 | 2.61561 | 45.26164 | 38890 ft | 500 kts | 178° |
| 2026-04-23 19:36 | 2.54610 | 45.26523 | 38890 ft | 499 kts | 178° |
| 2026-04-23 19:37 | 2.47666 | 45.26880 | 38889 ft | 499 kts | 178° |
| 2026-04-23 19:37 | 2.40730 | 45.27238 | 38884 ft | 499 kts | 178° |
| 2026-04-23 19:38 | 2.33782 | 45.27596 | 38894 ft | 500 kts | 178° |
| 2026-04-23 19:38 | 2.26820 | 45.27954 | 38894 ft | 501 kts | 178° |
| 2026-04-23 19:39 | 2.19853 | 45.28313 | 38892 ft | 502 kts | 178° |
| 2026-04-23 19:39 | 2.12851 | 45.28674 | 38890 ft | 503 kts | 178° |
| 2026-04-23 19:40 | 2.05893 | 45.29032 | 38891 ft | 504 kts | 178° |
| 2026-04-23 19:40 | 1.98880 | 45.29397 | 38890 ft | 505 kts | 178° |
| 2026-04-23 19:41 | 1.91856 | 45.29806 | 38889 ft | 505 kts | 178° |
| 2026-04-23 19:41 | 1.84841 | 45.30230 | 38894 ft | 505 kts | 178° |
| 2026-04-23 19:42 | 1.77818 | 45.30651 | 38886 ft | 504 kts | 178° |
| 2026-04-23 19:42 | 1.70813 | 45.31065 | 38886 ft | 503 kts | 178° |
| 2026-04-23 19:43 | 1.63819 | 45.31478 | 38887 ft | 503 kts | 178° |
| 2026-04-23 19:43 | 1.56886 | 45.31887 | 38890 ft | 501 kts | 178° |
| 2026-04-23 19:44 | 1.49895 | 45.32299 | 38883 ft | 500 kts | 178° |
| 2026-04-23 19:44 | 1.43002 | 45.32706 | 38886 ft | 499 kts | 178° |
| 2026-04-23 19:45 | 1.36078 | 45.33115 | 38887 ft | 498 kts | 178° |
| 2026-04-23 19:45 | 1.29168 | 45.33523 | 38888 ft | 498 kts | 178° |
| 2026-04-23 19:46 | 1.22248 | 45.33931 | 38887 ft | 498 kts | 178° |
| 2026-04-23 19:46 | 1.15329 | 45.34339 | 38889 ft | 498 kts | 178° |
| 2026-04-23 19:47 | 1.08385 | 45.34749 | 38893 ft | 499 kts | 178° |
| 2026-04-23 19:47 | 1.01482 | 45.35156 | 38890 ft | 501 kts | 178° |
| 2026-04-23 19:48 | 0.94463 | 45.35570 | 38897 ft | 502 kts | 178° |
| 2026-04-23 19:48 | 0.87521 | 45.35980 | 38895 ft | 504 kts | 178° |
| 2026-04-23 19:49 | 0.80506 | 45.36394 | 38891 ft | 505 kts | 178° |
| 2026-04-23 19:49 | 0.73497 | 45.36807 | 38894 ft | 506 kts | 178° |
| 2026-04-23 19:50 | 0.66464 | 45.37222 | 38894 ft | 506 kts | 178° |
| 2026-04-23 19:50 | 0.59420 | 45.37638 | 38890 ft | 506 kts | 178° |
| 2026-04-23 19:51 | 0.52395 | 45.38053 | 38892 ft | 506 kts | 178° |
| 2026-04-23 19:51 | 0.45371 | 45.38465 | 38890 ft | 505 kts | 178° |
| 2026-04-23 19:52 | 0.38357 | 45.38873 | 38893 ft | 503 kts | 178° |
| 2026-04-23 19:52 | 0.31410 | 45.39277 | 38890 ft | 502 kts | 178° |
| 2026-04-23 19:53 | 0.24437 | 45.39683 | 38887 ft | 501 kts | 178° |
| 2026-04-23 19:53 | 0.17477 | 45.40088 | 38897 ft | 501 kts | 178° |
| 2026-04-23 19:54 | 0.10521 | 45.40493 | 38896 ft | 501 kts | 178° |
| 2026-04-23 19:54 | 0.03557 | 45.40899 | 38896 ft | 501 kts | 178° |
| 2026-04-23 19:55 | -0.03402 | 45.41304 | 38904 ft | 500 kts | 178° |
| 2026-04-23 19:55 | -0.10349 | 45.41709 | 38893 ft | 499 kts | 178° |
| 2026-04-23 19:56 | -0.17287 | 45.42113 | 38893 ft | 498 kts | 178° |
| 2026-04-23 19:56 | -0.24201 | 45.42516 | 38894 ft | 497 kts | 178° |
| 2026-04-23 19:57 | -0.31062 | 45.42915 | 38898 ft | 496 kts | 178° |
| 2026-04-23 19:57 | -0.37957 | 45.43317 | 38893 ft | 496 kts | 178° |
| 2026-04-23 19:58 | -0.44853 | 45.43718 | 38893 ft | 496 kts | 178° |
| 2026-04-23 19:58 | -0.51742 | 45.44120 | 38895 ft | 496 kts | 178° |
| 2026-04-23 19:59 | -0.58639 | 45.44521 | 38890 ft | 497 kts | 179° |
| 2026-04-23 19:59 | -0.65547 | 45.44924 | 38896 ft | 498 kts | 179° |
| 2026-04-23 20:00 | -0.72473 | 45.45327 | 38895 ft | 499 kts | 179° |
| 2026-04-23 20:00 | -0.79428 | 45.45732 | 38896 ft | 500 kts | 179° |
| 2026-04-23 20:01 | -0.86393 | 45.46137 | 38897 ft | 501 kts | 179° |
| 2026-04-23 20:01 | -0.93312 | 45.46536 | 38893 ft | 502 kts | 179° |
| 2026-04-23 20:02 | -1.00279 | 45.46938 | 38894 ft | 501 kts | 179° |
| 2026-04-23 20:02 | -1.07246 | 45.47340 | 38893 ft | 501 kts | 179° |
| 2026-04-23 20:03 | -1.14198 | 45.47742 | 38892 ft | 501 kts | 179° |
| 2026-04-23 20:03 | -1.21166 | 45.48145 | 38889 ft | 500 kts | 179° |
| 2026-04-23 20:04 | -1.28079 | 45.48544 | 38890 ft | 500 kts | 179° |
| 2026-04-23 20:04 | -1.35014 | 45.48944 | 38895 ft | 499 kts | 179° |
| 2026-04-23 20:05 | -1.40823 | 45.49280 | 38894 ft | 499 kts | 179° |
| 2026-04-23 20:05 | -1.48880 | 45.49746 | 38888 ft | 499 kts | 179° |
| 2026-04-23 20:06 | -1.55807 | 45.50146 | 38893 ft | 499 kts | 179° |
| 2026-04-23 20:06 | -1.62741 | 45.50546 | 38893 ft | 498 kts | 179° |
| 2026-04-23 20:07 | -1.69665 | 45.50946 | 38901 ft | 498 kts | 179° |
| 2026-04-23 20:07 | -1.76573 | 45.51346 | 38892 ft | 497 kts | 179° |
| 2026-04-23 20:08 | -1.83485 | 45.51745 | 38892 ft | 497 kts | 179° |
| 2026-04-23 20:08 | -1.90387 | 45.52144 | 38894 ft | 496 kts | 179° |
| 2026-04-23 20:09 | -1.97273 | 45.52542 | 38894 ft | 496 kts | 179° |
| 2026-04-23 20:09 | -2.04166 | 45.52941 | 38892 ft | 495 kts | 179° |
| 2026-04-23 20:10 | -2.09874 | 45.53271 | 38892 ft | 495 kts | 179° |
| 2026-04-23 20:10 | -2.17908 | 45.53735 | 38893 ft | 494 kts | 179° |
| 2026-04-23 20:11 | -2.24765 | 45.54132 | 38902 ft | 494 kts | 178° |
| 2026-04-23 20:11 | -2.31620 | 45.54528 | 38895 ft | 493 kts | 178° |
| 2026-04-23 20:12 | -2.38470 | 45.54925 | 38890 ft | 493 kts | 178° |
| 2026-04-23 20:12 | -2.45278 | 45.55319 | 38897 ft | 492 kts | 179° |
| 2026-04-23 20:13 | -2.52112 | 45.55714 | 38891 ft | 492 kts | 178° |
| 2026-04-23 20:13 | -2.58956 | 45.56110 | 38891 ft | 492 kts | 178° |
| 2026-04-23 20:14 | -2.64643 | 45.56439 | 38891 ft | 492 kts | 179° |
| 2026-04-23 20:14 | -2.71496 | 45.56836 | 38894 ft | 493 kts | 179° |
| 2026-04-23 20:15 | -2.78343 | 45.57232 | 38893 ft | 493 kts | 178° |
| 2026-04-23 20:15 | -2.85194 | 45.57629 | 38895 ft | 493 kts | 178° |
| 2026-04-23 20:16 | -2.92044 | 45.58025 | 38896 ft | 493 kts | 178° |
| 2026-04-23 20:16 | -2.98910 | 45.58423 | 38893 ft | 493 kts | 178° |
| 2026-04-23 20:17 | -3.05773 | 45.58820 | 38890 ft | 494 kts | 178° |
| 2026-04-23 20:17 | -3.12630 | 45.59217 | 38888 ft | 494 kts | 178° |
| 2026-04-23 20:18 | -3.19500 | 45.59616 | 38887 ft | 495 kts | 178° |
| 2026-04-23 20:18 | -3.26343 | 45.60012 | 38896 ft | 495 kts | 178° |
| 2026-04-23 20:19 | -3.33243 | 45.60412 | 38890 ft | 497 kts | 178° |
| 2026-04-23 20:19 | -3.40165 | 45.60813 | 38894 ft | 499 kts | 178° |
| 2026-04-23 20:20 | -3.47128 | 45.61216 | 38887 ft | 501 kts | 178° |
| 2026-04-23 20:20 | -3.54095 | 45.61620 | 38895 ft | 502 kts | 178° |
| 2026-04-23 20:21 | -3.61030 | 45.62023 | 38894 ft | 502 kts | 178° |
| 2026-04-23 20:21 | -3.68004 | 45.62427 | 38890 ft | 501 kts | 178° |
| 2026-04-23 20:22 | -3.74957 | 45.62831 | 38889 ft | 500 kts | 178° |
| 2026-04-23 20:22 | -3.81911 | 45.63234 | 38889 ft | 500 kts | 178° |
| 2026-04-23 20:23 | -3.88849 | 45.63637 | 38892 ft | 499 kts | 178° |
| 2026-04-23 20:23 | -3.95738 | 45.64036 | 38879 ft | 498 kts | 178° |
| 2026-04-23 20:24 | -4.02648 | 45.64437 | 38892 ft | 498 kts | 178° |
| 2026-04-23 20:24 | -4.09578 | 45.64840 | 39177 ft | 499 kts | 178° |
| 2026-04-23 20:24 | -4.13029 | 45.65040 | 39453 ft | 496 kts | 178° |
| 2026-04-23 20:25 | -4.16472 | 45.65240 | 39706 ft | 495 kts | 179° |
| 2026-04-23 20:25 | -4.19913 | 45.65441 | 39920 ft | 494 kts | 179° |
| 2026-04-23 20:25 | -4.23348 | 45.65641 | 40102 ft | 494 kts | 179° |
| 2026-04-23 20:25 | -4.26780 | 45.65841 | 40269 ft | 494 kts | 179° |
| 2026-04-23 20:26 | -4.30217 | 45.66043 | 40435 ft | 494 kts | 179° |
| 2026-04-23 20:26 | -4.33644 | 45.66243 | 40626 ft | 494 kts | 179° |
| 2026-04-23 20:26 | -4.37079 | 45.66444 | 40777 ft | 494 kts | 179° |
| 2026-04-23 20:27 | -4.43959 | 45.66847 | 40902 ft | 496 kts | 179° |
| 2026-04-23 20:27 | -4.50801 | 45.67247 | 40889 ft | 495 kts | 179° |
| 2026-04-23 20:28 | -4.57662 | 45.67649 | 40891 ft | 493 kts | 179° |
| 2026-04-23 20:28 | -4.64498 | 45.68050 | 40893 ft | 491 kts | 179° |
| 2026-04-23 20:29 | -4.71317 | 45.68449 | 40894 ft | 490 kts | 179° |
| 2026-04-23 20:29 | -4.78132 | 45.68848 | 40879 ft | 490 kts | 179° |
| 2026-04-23 20:30 | -4.84935 | 45.69246 | 40879 ft | 490 kts | 179° |
| 2026-04-23 20:30 | -4.95168 | 45.69845 | 40892 ft | 491 kts | 179° |
| 2026-04-23 20:31 | -5.02001 | 45.70246 | 40887 ft | 492 kts | 179° |
| 2026-04-23 20:31 | -5.08847 | 45.70647 | 40883 ft | 493 kts | 179° |
| 2026-04-23 20:32 | -5.15699 | 45.71049 | 40883 ft | 494 kts | 179° |
| 2026-04-23 20:32 | -5.22564 | 45.71452 | 40890 ft | 494 kts | 179° |
| 2026-04-23 20:33 | -5.29392 | 45.71852 | 40895 ft | 494 kts | 179° |
| 2026-04-23 20:33 | -5.36271 | 45.72256 | 40887 ft | 494 kts | 179° |
| 2026-04-23 20:34 | -5.43132 | 45.72659 | 40886 ft | 494 kts | 179° |
| 2026-04-23 20:34 | -5.49996 | 45.73062 | 40897 ft | 493 kts | 179° |
| 2026-04-23 20:35 | -5.56847 | 45.73464 | 40887 ft | 493 kts | 179° |
| 2026-04-23 20:35 | -5.63689 | 45.73866 | 40897 ft | 492 kts | 179° |
| 2026-04-23 20:36 | -5.70532 | 45.74268 | 40902 ft | 492 kts | 179° |
| 2026-04-23 20:36 | -5.77314 | 45.74666 | 40907 ft | 491 kts | 179° |
| 2026-04-23 20:37 | -5.84147 | 45.75068 | 40892 ft | 491 kts | 179° |
| 2026-04-23 20:37 | -5.90978 | 45.75469 | 40891 ft | 491 kts | 179° |
| 2026-04-23 20:38 | -5.97803 | 45.75871 | 40891 ft | 491 kts | 179° |
| 2026-04-23 20:38 | -6.04619 | 45.76271 | 40894 ft | 491 kts | 180° |
| 2026-04-23 20:39 | -6.11451 | 45.76669 | 40891 ft | 491 kts | 180° |
| 2026-04-23 20:39 | -6.18239 | 45.77066 | 40891 ft | 491 kts | 180° |
| 2026-04-23 20:40 | -6.25066 | 45.77465 | 40892 ft | 491 kts | 180° |
| 2026-04-23 20:40 | -6.31912 | 45.77866 | 40895 ft | 492 kts | 180° |
| 2026-04-23 20:41 | -6.38741 | 45.78266 | 40889 ft | 492 kts | 180° |
| 2026-04-23 20:41 | -6.45578 | 45.78666 | 40895 ft | 492 kts | 180° |
| 2026-04-23 20:42 | -6.52421 | 45.79067 | 40893 ft | 492 kts | 180° |
| 2026-04-23 20:42 | -6.59227 | 45.79466 | 40898 ft | 493 kts | 180° |
| 2026-04-23 20:43 | -6.66078 | 45.79868 | 40897 ft | 493 kts | 180° |
| 2026-04-23 20:43 | -6.72929 | 45.80269 | 40899 ft | 493 kts | 180° |
| 2026-04-23 20:44 | -6.79778 | 45.80671 | 40896 ft | 493 kts | 180° |
| 2026-04-23 20:44 | -6.86630 | 45.81073 | 40895 ft | 493 kts | 180° |
| 2026-04-23 20:45 | -6.93477 | 45.81475 | 40896 ft | 493 kts | 180° |
| 2026-04-23 20:45 | -7.00328 | 45.81877 | 40898 ft | 493 kts | 180° |
| 2026-04-23 20:46 | -7.07169 | 45.82279 | 40899 ft | 492 kts | 180° |
| 2026-04-23 20:46 | -7.13964 | 45.82677 | 40901 ft | 492 kts | 180° |
| 2026-04-23 20:47 | -7.20797 | 45.83079 | 40897 ft | 492 kts | 180° |
| 2026-04-23 20:47 | -7.27630 | 45.83481 | 40899 ft | 491 kts | 180° |
| 2026-04-23 20:48 | -7.34454 | 45.83882 | 40898 ft | 491 kts | 180° |
| 2026-04-23 20:48 | -7.41275 | 45.84283 | 40900 ft | 490 kts | 179° |
| 2026-04-23 20:49 | -7.48092 | 45.84684 | 40898 ft | 490 kts | 179° |
| 2026-04-23 20:49 | -7.54902 | 45.85085 | 40901 ft | 490 kts | 179° |
| 2026-04-23 20:50 | -7.61706 | 45.85485 | 40899 ft | 489 kts | 179° |
| 2026-04-23 20:50 | -7.68458 | 45.85883 | 40903 ft | 489 kts | 179° |
| 2026-04-23 20:51 | -7.75270 | 45.86284 | 40898 ft | 489 kts | 179° |
| 2026-04-23 20:51 | -7.82064 | 45.86684 | 40899 ft | 489 kts | 179° |
| 2026-04-23 20:52 | -7.88849 | 45.87084 | 40898 ft | 489 kts | 179° |
| 2026-04-23 20:52 | -7.95639 | 45.87484 | 40899 ft | 489 kts | 179° |
| 2026-04-23 20:53 | -8.02437 | 45.87885 | 40901 ft | 489 kts | 179° |
| 2026-04-23 20:53 | -8.09228 | 45.88286 | 40902 ft | 489 kts | 179° |
| 2026-04-23 20:54 | -8.16027 | 45.88687 | 40899 ft | 489 kts | 179° |
| 2026-04-23 20:54 | -8.22825 | 45.89088 | 40898 ft | 489 kts | 179° |
| 2026-04-23 20:55 | -8.29587 | 45.89487 | 40902 ft | 489 kts | 179° |
| 2026-04-23 20:55 | -8.36430 | 45.89892 | 40901 ft | 489 kts | 179° |
| 2026-04-23 20:56 | -8.43183 | 45.90291 | 40904 ft | 489 kts | 179° |
| 2026-04-23 20:56 | -8.49993 | 45.90693 | 40905 ft | 489 kts | 179° |
| 2026-04-23 20:57 | -8.56779 | 45.91095 | 40906 ft | 489 kts | 179° |
| 2026-04-23 20:57 | -8.63580 | 45.91497 | 40907 ft | 488 kts | 179° |
| 2026-04-23 20:58 | -8.70372 | 45.91899 | 40904 ft | 488 kts | 179° |
| 2026-04-23 20:58 | -8.77142 | 45.92300 | 40905 ft | 488 kts | 178° |
| 2026-04-23 20:59 | -8.83879 | 45.92699 | 40907 ft | 487 kts | 179° |
| 2026-04-23 20:59 | -8.90649 | 45.93100 | 40907 ft | 487 kts | 179° |
| 2026-04-23 21:00 | -8.97423 | 45.93501 | 40908 ft | 487 kts | 179° |
| 2026-04-23 21:00 | -9.03045 | 45.93834 | 40912 ft | 487 kts | 179° |
| 2026-04-23 21:01 | -9.09851 | 45.94238 | 40911 ft | 487 kts | 179° |
| 2026-04-23 21:01 | -9.16574 | 45.94637 | 40909 ft | 487 kts | 178° |
| 2026-04-23 21:02 | -9.23336 | 45.95038 | 40911 ft | 486 kts | 178° |
| 2026-04-23 21:02 | -9.30097 | 45.95440 | 40913 ft | 486 kts | 178° |
| 2026-04-23 21:03 | -9.36855 | 45.95841 | 40911 ft | 486 kts | 178° |
| 2026-04-23 21:03 | -9.43615 | 45.96243 | 40909 ft | 486 kts | 178° |
| 2026-04-23 21:04 | -9.50374 | 45.96645 | 40907 ft | 486 kts | 178° |
| 2026-04-23 21:04 | -9.57120 | 45.97046 | 40914 ft | 486 kts | 178° |
| 2026-04-23 21:05 | -9.63824 | 45.97445 | 40907 ft | 486 kts | 178° |
| 2026-04-23 21:05 | -9.70587 | 45.97847 | 40915 ft | 485 kts | 178° |
| 2026-04-23 21:06 | -9.77335 | 45.98249 | 40905 ft | 485 kts | 178° |
| 2026-04-23 21:06 | -9.84070 | 45.98650 | 40915 ft | 485 kts | 178° |
| 2026-04-23 21:07 | -9.90809 | 45.99052 | 40912 ft | 485 kts | 178° |
| 2026-04-23 21:07 | -9.97536 | 45.99453 | 40912 ft | 484 kts | 178° |
| 2026-04-23 21:08 | -10.04259 | 45.99852 | 40917 ft | 484 kts | 178° |
| 2026-04-23 21:08 | -10.10976 | 46.00247 | 40921 ft | 483 kts | 178° |
| 2026-04-23 21:09 | -10.17637 | 46.00639 | 40911 ft | 482 kts | 178° |
| 2026-04-23 21:09 | -10.24318 | 46.01032 | 40914 ft | 481 kts | 178° |
| 2026-04-23 21:10 | -10.31003 | 46.01427 | 40914 ft | 480 kts | 178° |
| 2026-04-23 21:10 | -10.37668 | 46.01820 | 40919 ft | 479 kts | 178° |
| 2026-04-23 21:11 | -10.44334 | 46.02213 | 40910 ft | 479 kts | 178° |
| 2026-04-23 21:11 | -10.50978 | 46.02606 | 40912 ft | 478 kts | 178° |
| 2026-04-23 21:12 | -10.57625 | 46.02998 | 40915 ft | 478 kts | 178° |
| 2026-04-23 21:12 | -10.64260 | 46.03390 | 40916 ft | 477 kts | 178° |
| 2026-04-23 21:13 | -10.70859 | 46.03781 | 40915 ft | 478 kts | 178° |
| 2026-04-23 21:13 | -10.77493 | 46.04173 | 40915 ft | 478 kts | 178° |
| 2026-04-23 21:14 | -10.84151 | 46.04567 | 40914 ft | 478 kts | 178° |
| 2026-04-23 21:14 | -10.90810 | 46.04961 | 40913 ft | 479 kts | 178° |
| 2026-04-23 21:15 | -10.97415 | 46.05353 | 40914 ft | 479 kts | 178° |
| 2026-04-23 21:15 | -11.04065 | 46.05747 | 40912 ft | 479 kts | 178° |
| 2026-04-23 21:16 | -11.10726 | 46.06142 | 40909 ft | 479 kts | 178° |
| 2026-04-23 21:16 | -11.17379 | 46.06536 | 40911 ft | 479 kts | 178° |
| 2026-04-23 21:17 | -11.24040 | 46.06932 | 40909 ft | 478 kts | 178° |
| 2026-04-23 21:17 | -11.30678 | 46.07326 | 40909 ft | 478 kts | 178° |
| 2026-04-23 21:18 | -11.37330 | 46.07721 | 40906 ft | 478 kts | 178° |
| 2026-04-23 21:18 | -11.43922 | 46.08113 | 40911 ft | 477 kts | 178° |
| 2026-04-23 21:19 | -11.50550 | 46.08507 | 40908 ft | 477 kts | 178° |
| 2026-04-23 21:19 | -11.57174 | 46.08901 | 40910 ft | 476 kts | 178° |
| 2026-04-23 21:20 | -11.63783 | 46.09294 | 40906 ft | 476 kts | 178° |
| 2026-04-23 21:20 | -11.70397 | 46.09688 | 40910 ft | 475 kts | 178° |
| 2026-04-23 21:21 | -11.76996 | 46.10081 | 40905 ft | 475 kts | 178° |
| 2026-04-23 21:21 | -11.83585 | 46.10474 | 40907 ft | 474 kts | 178° |
| 2026-04-23 21:22 | -11.90184 | 46.10867 | 40906 ft | 474 kts | 178° |
| 2026-04-23 21:22 | -11.96768 | 46.11260 | 40907 ft | 474 kts | 178° |
| 2026-04-23 21:23 | -12.03362 | 46.11654 | 40906 ft | 474 kts | 178° |
| 2026-04-23 21:23 | -12.09904 | 46.12044 | 40907 ft | 474 kts | 178° |
| 2026-04-23 21:24 | -12.16492 | 46.12438 | 40907 ft | 474 kts | 178° |
| 2026-04-23 21:24 | -12.23083 | 46.12832 | 40911 ft | 474 kts | 177° |
| 2026-04-23 21:25 | -12.29666 | 46.13226 | 40906 ft | 474 kts | 177° |
| 2026-04-23 21:25 | -12.36269 | 46.13625 | 40904 ft | 474 kts | 177° |
| 2026-04-23 21:26 | -12.42856 | 46.14030 | 40904 ft | 474 kts | 177° |
| 2026-04-23 21:26 | -12.49412 | 46.14433 | 40906 ft | 474 kts | 177° |
| 2026-04-23 21:27 | -12.55998 | 46.14837 | 40903 ft | 474 kts | 177° |
| 2026-04-23 21:27 | -12.62589 | 46.15241 | 40904 ft | 474 kts | 177° |
| 2026-04-23 21:28 | -12.69179 | 46.15646 | 40904 ft | 474 kts | 177° |
| 2026-04-23 21:28 | -12.75764 | 46.16050 | 40906 ft | 473 kts | 177° |
| 2026-04-23 21:29 | -12.82296 | 46.16452 | 40900 ft | 473 kts | 177° |
| 2026-04-23 21:29 | -12.88878 | 46.16856 | 40901 ft | 473 kts | 177° |
| 2026-04-23 21:30 | -12.95449 | 46.17261 | 40902 ft | 473 kts | 177° |
| 2026-04-23 21:30 | -13.02019 | 46.17665 | 40904 ft | 473 kts | 177° |
| 2026-04-23 21:31 | -13.08589 | 46.18069 | 40901 ft | 473 kts | 177° |
| 2026-04-23 21:31 | -13.15115 | 46.18471 | 40902 ft | 473 kts | 177° |
| 2026-04-23 21:32 | -13.21689 | 46.18877 | 40898 ft | 473 kts | 177° |
| 2026-04-23 21:32 | -13.28257 | 46.19282 | 40898 ft | 473 kts | 177° |
| 2026-04-23 21:33 | -13.34824 | 46.19687 | 40901 ft | 473 kts | 177° |
| 2026-04-23 21:33 | -13.41395 | 46.20093 | 40901 ft | 473 kts | 177° |
| 2026-04-23 21:34 | -13.47964 | 46.20499 | 40901 ft | 473 kts | 177° |
| 2026-04-23 21:34 | -13.54539 | 46.20905 | 40902 ft | 473 kts | 177° |
| 2026-04-23 21:35 | -13.61108 | 46.21311 | 40898 ft | 473 kts | 177° |
| 2026-04-23 21:35 | -13.67673 | 46.21716 | 40898 ft | 472 kts | 177° |
| 2026-04-23 21:36 | -13.77509 | 46.22323 | 40895 ft | 472 kts | 177° |
| 2026-04-23 21:37 | -13.84060 | 46.22728 | 40904 ft | 471 kts | 177° |
| 2026-04-23 21:37 | -13.90564 | 46.23130 | 40891 ft | 470 kts | 177° |
| 2026-04-23 21:38 | -13.97085 | 46.23534 | 40890 ft | 469 kts | 177° |
| 2026-04-23 21:38 | -14.03595 | 46.23937 | 40894 ft | 468 kts | 177° |
| 2026-04-23 21:39 | -14.10082 | 46.24338 | 40892 ft | 467 kts | 176° |
| 2026-04-23 21:39 | -14.16548 | 46.24739 | 40897 ft | 463 kts | 176° |
| 2026-04-23 21:40 | -14.22971 | 46.25137 | 40895 ft | 461 kts | 176° |
| 2026-04-23 21:40 | -14.29376 | 46.25535 | 40893 ft | 461 kts | 176° |
| 2026-04-23 21:41 | -14.35795 | 46.25934 | 40904 ft | 463 kts | 176° |
| 2026-04-23 21:41 | -14.42224 | 46.26333 | 40901 ft | 462 kts | 176° |
| 2026-04-23 21:42 | -14.48657 | 46.26732 | 40903 ft | 462 kts | 176° |
| 2026-04-23 21:42 | -14.55072 | 46.27132 | 40889 ft | 462 kts | 176° |
| 2026-04-23 21:43 | -14.61494 | 46.27531 | 40909 ft | 462 kts | 176° |
| 2026-04-23 21:43 | -14.67919 | 46.27932 | 40910 ft | 462 kts | 176° |
| 2026-04-23 21:44 | -14.74310 | 46.28333 | 40909 ft | 463 kts | 176° |
| 2026-04-23 21:44 | -14.80747 | 46.28737 | 40913 ft | 463 kts | 176° |
| 2026-04-23 21:45 | -14.87179 | 46.29141 | 40903 ft | 464 kts | 176° |
| 2026-04-23 21:45 | -14.93621 | 46.29546 | 40917 ft | 464 kts | 176° |
| 2026-04-23 21:46 | -15.00078 | 46.29952 | 40915 ft | 464 kts | 176° |
| 2026-04-23 21:46 | -15.06528 | 46.30358 | 40918 ft | 464 kts | 176° |
| 2026-04-23 21:47 | -15.11892 | 46.30696 | 40921 ft | 464 kts | 176° |
| 2026-04-23 21:47 | -15.18350 | 46.31102 | 40921 ft | 464 kts | 176° |
| 2026-04-23 21:48 | -15.24793 | 46.31508 | 40923 ft | 464 kts | 176° |
| 2026-04-23 21:48 | -15.31238 | 46.31915 | 40921 ft | 464 kts | 176° |
| 2026-04-23 21:49 | -15.37685 | 46.32322 | 40926 ft | 464 kts | 176° |
| 2026-04-23 21:49 | -15.44123 | 46.32729 | 40921 ft | 464 kts | 176° |
| 2026-04-23 21:50 | -15.50527 | 46.33133 | 40937 ft | 464 kts | 176° |
| 2026-04-23 21:50 | -15.56971 | 46.33541 | 40940 ft | 463 kts | 176° |
| 2026-04-23 21:51 | -15.63411 | 46.33959 | 40942 ft | 463 kts | 174° |
| 2026-04-23 21:51 | -15.69739 | 46.35136 | 40936 ft | 462 kts | 164° |
| 2026-04-23 21:52 | -15.75939 | 46.36957 | 40952 ft | 463 kts | 164° |
| 2026-04-23 21:52 | -15.82130 | 46.38777 | 40939 ft | 463 kts | 164° |
| 2026-04-23 21:53 | -15.88342 | 46.40577 | 40935 ft | 463 kts | 164° |
| 2026-04-23 21:53 | -15.94549 | 46.42363 | 40928 ft | 463 kts | 164° |
| 2026-04-23 21:54 | -16.00719 | 46.44137 | 40923 ft | 463 kts | 164° |
| 2026-04-23 21:54 | -16.06925 | 46.45925 | 40922 ft | 463 kts | 164° |
| 2026-04-23 21:55 | -16.13131 | 46.47715 | 40923 ft | 463 kts | 164° |
| 2026-04-23 21:55 | -16.19346 | 46.49508 | 40923 ft | 463 kts | 165° |
| 2026-04-23 21:56 | -16.25555 | 46.51301 | 40924 ft | 463 kts | 165° |
| 2026-04-23 21:56 | -16.31761 | 46.53094 | 40928 ft | 463 kts | 165° |
| 2026-04-23 21:57 | -16.37967 | 46.54888 | 40922 ft | 463 kts | 164° |
| 2026-04-23 21:57 | -16.44136 | 46.56673 | 40923 ft | 463 kts | 164° |
| 2026-04-23 21:58 | -16.50344 | 46.58468 | 40930 ft | 463 kts | 165° |
| 2026-04-23 21:58 | -16.56556 | 46.60261 | 40924 ft | 463 kts | 165° |
| 2026-04-23 21:59 | -16.62761 | 46.62054 | 40922 ft | 463 kts | 165° |
| 2026-04-23 21:59 | -16.68967 | 46.63849 | 40926 ft | 462 kts | 165° |
| 2026-04-23 22:00 | -16.78271 | 46.66543 | 40932 ft | 462 kts | 165° |
| 2026-04-23 22:00 | -16.84468 | 46.68340 | 40937 ft | 462 kts | 165° |
| 2026-04-23 22:01 | -16.90671 | 46.70139 | 40936 ft | 463 kts | 165° |
| 2026-04-23 22:01 | -16.96883 | 46.71941 | 40941 ft | 463 kts | 165° |
| 2026-04-23 22:02 | -17.03056 | 46.73734 | 40947 ft | 463 kts | 165° |
| 2026-04-23 22:02 | -17.09264 | 46.75538 | 40957 ft | 463 kts | 165° |
| 2026-04-23 22:03 | -17.15471 | 46.77343 | 40955 ft | 463 kts | 165° |
| 2026-04-23 22:03 | -17.21683 | 46.79151 | 40966 ft | 463 kts | 165° |
| 2026-04-23 22:04 | -17.27896 | 46.80961 | 40965 ft | 463 kts | 165° |
| 2026-04-23 22:04 | -17.34099 | 46.82769 | 40988 ft | 463 kts | 165° |
| 2026-04-23 22:05 | -17.40309 | 46.84579 | 41001 ft | 463 kts | 165° |
| 2026-04-23 22:05 | -17.46510 | 46.86389 | 41002 ft | 463 kts | 165° |
| 2026-04-23 22:06 | -17.52717 | 46.88202 | 41016 ft | 463 kts | 165° |
| 2026-04-23 22:06 | -17.58922 | 46.90016 | 41015 ft | 462 kts | 165° |
| 2026-04-23 22:07 | -17.65085 | 46.91818 | 41030 ft | 462 kts | 165° |
| 2026-04-23 22:07 | -17.71282 | 46.93632 | 41029 ft | 462 kts | 165° |
| 2026-04-23 22:08 | -17.77481 | 46.95448 | 41047 ft | 462 kts | 165° |
| 2026-04-23 22:08 | -17.80607 | 46.96363 | 40435 ft | 472 kts | 165° |
| 2026-04-23 22:08 | -17.83758 | 46.97287 | 39824 ft | 468 kts | 165° |
| 2026-04-23 22:09 | -17.86883 | 46.98204 | 38999 ft | 461 kts | 165° |
| 2026-04-23 22:09 | -17.89936 | 46.99101 | 38105 ft | 452 kts | 165° |
| 2026-04-23 22:09 | -17.92970 | 46.99991 | 37281 ft | 452 kts | 165° |
| 2026-04-23 22:09 | -17.95986 | 47.00877 | 36465 ft | 452 kts | 165° |
| 2026-04-23 22:10 | -17.99027 | 47.01772 | 35573 ft | 453 kts | 165° |
| 2026-04-23 22:10 | -18.02057 | 47.02666 | 34603 ft | 457 kts | 165° |
| 2026-04-23 22:10 | -18.05150 | 47.03579 | 33496 ft | 461 kts | 165° |
| 2026-04-23 22:10 | -18.08220 | 47.04486 | 32367 ft | 464 kts | 165° |
| 2026-04-23 22:11 | -18.11381 | 47.05420 | 31212 ft | 467 kts | 165° |
| 2026-04-23 22:11 | -18.14509 | 47.06344 | 30327 ft | 464 kts | 165° |
| 2026-04-23 22:11 | -18.17560 | 47.07246 | 29405 ft | 461 kts | 165° |
| 2026-04-23 22:11 | -18.20634 | 47.08155 | 28501 ft | 457 kts | 165° |
| 2026-04-23 22:12 | -18.23688 | 47.09058 | 27686 ft | 452 kts | 164° |
| 2026-04-23 22:12 | -18.26701 | 47.09949 | 26889 ft | 448 kts | 164° |
| 2026-04-23 22:12 | -18.29690 | 47.10837 | 26086 ft | 444 kts | 163° |
| 2026-04-23 22:12 | -18.32539 | 47.12042 | 25285 ft | 441 kts | 150° |
| 2026-04-23 22:13 | -18.34951 | 47.13961 | 24518 ft | 431 kts | 140° |
| 2026-04-23 22:13 | -18.37244 | 47.15985 | 23762 ft | 429 kts | 141° |
| 2026-04-23 22:13 | -18.39558 | 47.17961 | 22884 ft | 427 kts | 141° |
| 2026-04-23 22:13 | -18.41878 | 47.19907 | 22106 ft | 424 kts | 142° |
| 2026-04-23 22:14 | -18.44175 | 47.21817 | 21366 ft | 420 kts | 142° |
| 2026-04-23 22:14 | -18.46464 | 47.23714 | 20649 ft | 416 kts | 142° |
| 2026-04-23 22:14 | -18.48739 | 47.25597 | 19923 ft | 414 kts | 141° |
| 2026-04-23 22:14 | -18.50998 | 47.27468 | 19208 ft | 410 kts | 141° |
| 2026-04-23 22:15 | -18.53208 | 47.29300 | 18526 ft | 402 kts | 141° |
| 2026-04-23 22:15 | -18.55405 | 47.31123 | 17788 ft | 402 kts | 141° |
| 2026-04-23 22:15 | -18.57599 | 47.32944 | 17094 ft | 400 kts | 141° |
| 2026-04-23 22:15 | -18.59781 | 47.34757 | 16422 ft | 398 kts | 141° |
| 2026-04-23 22:16 | -18.61950 | 47.36559 | 15778 ft | 396 kts | 141° |
| 2026-04-23 22:16 | -18.64113 | 47.38358 | 15142 ft | 394 kts | 141° |
| 2026-04-23 22:16 | -18.66241 | 47.40128 | 14517 ft | 383 kts | 141° |
| 2026-04-23 22:16 | -18.68318 | 47.41857 | 13892 ft | 381 kts | 141° |
| 2026-04-23 22:17 | -18.70398 | 47.43589 | 13202 ft | 381 kts | 141° |
| 2026-04-23 22:17 | -18.72481 | 47.45322 | 12564 ft | 377 kts | 141° |
| 2026-04-23 22:17 | -18.74474 | 47.46982 | 11967 ft | 368 kts | 141° |
| 2026-04-23 22:17 | -18.76455 | 47.48631 | 11566 ft | 351 kts | 141° |
| 2026-04-23 22:18 | -18.78345 | 47.50206 | 11318 ft | 340 kts | 141° |
| 2026-04-23 22:18 | -18.80173 | 47.51729 | 11102 ft | 329 kts | 141° |
| 2026-04-23 22:18 | -18.81931 | 47.53196 | 11010 ft | 315 kts | 141° |
| 2026-04-23 22:18 | -18.83700 | 47.54411 | 10865 ft | 298 kts | 158° |
| 2026-04-23 22:19 | -18.85675 | 47.54799 | 10700 ft | 289 kts | 178° |
| 2026-04-23 22:19 | -18.87659 | 47.54710 | 10501 ft | 283 kts | 183° |
| 2026-04-23 22:19 | -18.89593 | 47.54479 | 10224 ft | 277 kts | 192° |
| 2026-04-23 22:19 | -18.91332 | 47.53587 | 9746 ft | 284 kts | 219° |
| 2026-04-23 22:20 | -18.92517 | 47.51928 | 9398 ft | 287 kts | 245° |
| 2026-04-23 22:20 | -18.92889 | 47.49874 | 9083 ft | 286 kts | 270° |
| 2026-04-23 22:20 | -18.92714 | 47.47779 | 8784 ft | 286 kts | 276° |
| 2026-04-23 22:20 | -18.92429 | 47.45704 | 8665 ft | 284 kts | 277° |
| 2026-04-23 22:21 | -18.92125 | 47.43639 | 8544 ft | 286 kts | 277° |
| 2026-04-23 22:21 | -18.91814 | 47.41551 | 8431 ft | 289 kts | 278° |
| 2026-04-23 22:21 | -18.91500 | 47.39456 | 8318 ft | 289 kts | 278° |
| 2026-04-23 22:21 | -18.91181 | 47.37360 | 8196 ft | 289 kts | 278° |
| 2026-04-23 22:22 | -18.90856 | 47.35270 | 8069 ft | 288 kts | 278° |
| 2026-04-23 22:22 | -18.90535 | 47.33212 | 7949 ft | 287 kts | 278° |
| 2026-04-23 22:22 | -18.90209 | 47.31132 | 7832 ft | 287 kts | 278° |
| 2026-04-23 22:22 | -18.89880 | 47.29027 | 7697 ft | 287 kts | 278° |
| 2026-04-23 22:23 | -18.89557 | 47.26983 | 7589 ft | 286 kts | 278° |
| 2026-04-23 22:23 | -18.89229 | 47.24907 | 7431 ft | 285 kts | 278° |
| 2026-04-23 22:23 | -18.88909 | 47.22848 | 7343 ft | 285 kts | 278° |
| 2026-04-23 22:23 | -18.88455 | 47.20823 | 7207 ft | 285 kts | 294° |
| 2026-04-23 22:24 | -18.87279 | 47.19146 | 7098 ft | 287 kts | 322° |
| 2026-04-23 22:24 | -18.85555 | 47.18225 | 7055 ft | 272 kts | 351° |
| 2026-04-23 22:24 | -18.83735 | 47.18205 | 7005 ft | 256 kts | 12° |
| 2026-04-23 22:24 | -18.81996 | 47.18525 | 6997 ft | 252 kts | 12° |
| 2026-04-23 22:25 | -18.80257 | 47.18788 | 6996 ft | 254 kts | 11° |
| 2026-04-23 22:25 | -18.78511 | 47.19051 | 6985 ft | 250 kts | 15° |
| 2026-04-23 22:25 | -18.76988 | 47.19806 | 6992 ft | 240 kts | 47° |
| 2026-04-23 22:25 | -18.76125 | 47.21260 | 7003 ft | 235 kts | 79° |
| 2026-04-23 22:26 | -18.76050 | 47.22964 | 7005 ft | 234 kts | 96° |
| 2026-04-23 22:26 | -18.76240 | 47.24685 | 7000 ft | 235 kts | 99° |
| 2026-04-23 22:26 | -18.76478 | 47.26331 | 6973 ft | 224 kts | 100° |
| 2026-04-23 22:26 | -18.76715 | 47.27904 | 6986 ft | 209 kts | 100° |
| 2026-04-23 22:27 | -18.76937 | 47.29376 | 6971 ft | 198 kts | 100° |
| 2026-04-23 22:27 | -18.77148 | 47.30779 | 7019 ft | 188 kts | 100° |
| 2026-04-23 22:27 | -18.77349 | 47.32126 | 6852 ft | 185 kts | 100° |
| 2026-04-23 22:27 | -18.77546 | 47.33444 | 6638 ft | 179 kts | 100° |
| 2026-04-23 22:28 | -18.77736 | 47.34727 | 6409 ft | 175 kts | 100° |
| 2026-04-23 22:28 | -18.77921 | 47.35973 | 6191 ft | 166 kts | 100° |
| 2026-04-23 22:28 | -18.78090 | 47.37115 | 5984 ft | 151 kts | 101° |
| 2026-04-23 22:28 | -18.78244 | 47.38147 | 5802 ft | 135 kts | 101° |
| 2026-04-23 22:29 | -18.78388 | 47.39123 | 5646 ft | 137 kts | 102° |
| 2026-04-23 22:29 | -18.78538 | 47.40117 | 5437 ft | 137 kts | 101° |
| 2026-04-23 22:29 | -18.78682 | 47.41118 | 5220 ft | 138 kts | 99° |
| 2026-04-23 22:29 | -18.78828 | 47.42126 | 5076 ft | 143 kts | 101° |
| 2026-04-23 22:30 | -18.78984 | 47.43154 | 4879 ft | 141 kts | 101° |
| 2026-04-23 22:30 | -18.79129 | 47.44193 | 4652 ft | 144 kts | 101° |
| 2026-04-23 22:30 | -18.79295 | 47.45224 | 4441 ft | 143 kts | 100° |
| 2026-04-23 22:30 | -18.79439 | 47.46257 | 4264 ft | 143 kts | 102° |
| 2026-04-23 22:31 | -18.79597 | 47.47250 | 4166 ft | 125 kts | 97° |
| 2026-04-23 22:31 | -18.79709 | 47.48003 | 4169 ft | 82 kts | 99° |
| 2026-04-23 22:31 | -18.79776 | 47.48440 | 4165 ft | 45 kts | 99° |
| 2026-04-23 22:31 | -18.79822 | 47.48753 | 4163 ft | 41 kts | 99° |
| 2026-04-23 22:32 | -18.79864 | 47.49028 | 4165 ft | 34 kts | 98° |
| 2026-04-23 22:32 | -18.79891 | 47.49204 | 4167 ft | 14 kts | 104° |
| 2026-04-23 22:32 | -18.79920 | 47.49266 | 4168 ft | 8 kts | 121° |
| 2026-04-23 22:32 | -18.79929 | 47.49288 | 4168 ft | 3 kts | 107° |
| 2026-04-23 22:33 | -18.79919 | 47.49301 | 4168 ft | 2 kts | 25° |
| 2026-04-23 22:33 | -18.79905 | 47.49289 | 4168 ft | 4 kts | 307° |
| 2026-04-23 22:33 | -18.79894 | 47.49232 | 4167 ft | 9 kts | 278° |
| 2026-04-23 22:33 | -18.79884 | 47.49164 | 4166 ft | 19 kts | 278° |
| 2026-04-23 22:34 | -18.79861 | 47.49010 | 4165 ft | 21 kts | 280° |
| 2026-04-23 22:34 | -18.79838 | 47.48855 | 4164 ft | 22 kts | 278° |
| 2026-04-23 22:34 | -18.79808 | 47.48645 | 4164 ft | 32 kts | 278° |
| 2026-04-23 22:34 | -18.79773 | 47.48423 | 4165 ft | 30 kts | 278° |
| 2026-04-23 22:35 | -18.79745 | 47.48238 | 4165 ft | 18 kts | 279° |
| 2026-04-23 22:35 | -18.79740 | 47.48148 | 4167 ft | 10 kts | 249° |
| 2026-04-23 22:35 | -18.79798 | 47.48116 | 4168 ft | 10 kts | 189° |
| 2026-04-23 22:35 | -18.79865 | 47.48105 | 4170 ft | 9 kts | 190° |
| 2026-04-23 22:36 | -18.79900 | 47.48063 | 4170 ft | 8 kts | 261° |
| 2026-04-23 22:36 | -18.79899 | 47.48030 | 4170 ft | 0 kts | 275° |
| 2026-04-23 22:36 | -18.79899 | 47.48026 | 4170 ft | 3 kts | 276° |
| 2026-04-23 22:36 | -18.79899 | 47.48024 | 4170 ft | 0 kts | 276° |
| 2026-04-23 22:37 | -18.79909 | 47.48012 | 4170 ft | 3 kts | 211° |
| 2026-04-23 22:37 | -18.79931 | 47.48010 | 4170 ft | 3 kts | 186° |
| 2026-04-23 22:38 | -18.79953 | 47.48007 | 4170 ft | 3 kts | 188° |
| 2026-04-23 22:38 | -18.79974 | 47.48004 | 4171 ft | 3 kts | 188° |
| 2026-04-23 22:38 | -18.79994 | 47.48000 | 4170 ft | 2 kts | 189° |
| 2026-04-23 22:38 | -18.79995 | 47.48000 | 4170 ft | 0 kts | 189° |